Kaisei Maru — JD3114 — position and weather

sailwx.info

Track history (hours):
 
Tides and Currents Weather Stations Pressure Air Temp Water Temp Dewpoint Dewpoint Depression Visibility Wind Speed Wind Dir Waves Ship Positions

Kaisei Maru

Last reported at 2018-Jul-20 06:30 UTC. Time now 2018-Jul-20 06:54 UTC.
Position N 34°41' E 135°12'.

Length 52 m; draft 3 m.

Type: Tanker. MMSI: 431001837.

Date/timePositionNaut miles runAvg speedWind from/ knotsBaromVisibWave heightAir tempDewpointWater temp
2018-Jul-20 06:30N 34°41' E 135°12'0 0.2
2018-Jul-20 06:00N 34°41' E 135°12'4 8.0
2018-Jul-20 05:30N 34°39' E 135°16'510.6
2018-Jul-20 05:00N 34°34' E 135°18'510.7
2018-Jul-20 04:30N 34°28' E 135°20'0 0.2
2018-Jul-20 03:27N 34°28' E 135°20'1 3.1
2018-Jul-20 03:00N 34°27' E 135°19'1 0.5
2018-Jul-20 00:58N 34°26' E 135°19'1 2.0
2018-Jul-20 00:24N 34°27' E 135°19'5 9.0
2018-Jul-19 23:52N 34°32' E 135°18'410.8
2018-Jul-19 23:30N 34°35' E 135°17'510.8
2018-Jul-19 23:00N 34°40' E 135°15'2 3.7
2018-Jul-19 22:28N 34°41' E 135°12'0 0.0
2018-Jul-19 21:58N 34°41' E 135°12'0 0.0
2018-Jul-19 21:22N 34°41' E 135°12'0 0.0
2018-Jul-19 20:58N 34°41' E 135°12'0 0.0
2018-Jul-19 20:30N 34°41' E 135°12'0 0.0
2018-Jul-19 20:00N 34°41' E 135°12'0 0.0
2018-Jul-19 19:30N 34°41' E 135°12'0 0.0
2018-Jul-19 19:00N 34°41' E 135°12'0 0.0
2018-Jul-19 18:30N 34°41' E 135°12'0 0.0
2018-Jul-19 18:00N 34°41' E 135°12'0 0.0
2018-Jul-19 17:30N 34°41' E 135°12'0 0.0
2018-Jul-19 17:00N 34°41' E 135°12'0 0.0
2018-Jul-19 16:30N 34°41' E 135°12'0 0.0
2018-Jul-19 16:00N 34°41' E 135°12'0 0.0
2018-Jul-19 15:30N 34°41' E 135°12'0 0.0
2018-Jul-19 15:00N 34°41' E 135°12'0 0.0
2018-Jul-19 13:57N 34°41' E 135°12'0 0.0
2018-Jul-19 13:30N 34°41' E 135°12'0 0.0
2018-Jul-19 13:00N 34°41' E 135°12'0 0.0
2018-Jul-19 12:30N 34°41' E 135°12'0 0.0
2018-Jul-19 12:00N 34°41' E 135°12'0 0.0
2018-Jul-19 11:30N 34°41' E 135°12'0 0.0
2018-Jul-19 11:00N 34°41' E 135°12'0 0.0
2018-Jul-19 10:30N 34°41' E 135°12'0 0.0
2018-Jul-19 10:00N 34°41' E 135°12'0 0.0
2018-Jul-19 09:30N 34°41' E 135°12'0 0.0
2018-Jul-19 09:00N 34°41' E 135°12'0 0.0
2018-Jul-19 08:30N 34°41' E 135°12'0 0.0
2018-Jul-19 08:00N 34°41' E 135°12'2 3.9
2018-Jul-19 07:30N 34°41' E 135°15'4 8.7
2018-Jul-19 07:00N 34°41' E 135°20'4 6.4
2018-Jul-19 06:27N 34°42' E 135°24'0 0.1
2018-Jul-19 01:41N 34°42' E 135°23'0 0.3
2018-Jul-19 01:30N 34°42' E 135°24'0 0.1
2018-Jul-19 01:00N 34°42' E 135°24'0 0.0
2018-Jul-19 00:30N 34°42' E 135°24'0 0.0
2018-Jul-19 00:00N 34°42' E 135°24'0 0.1
2018-Jul-18 23:30N 34°42' E 135°24'0 0.6
2018-Jul-18 23:00N 34°42' E 135°24'4 7.5
2018-Jul-18 22:30N 34°41' E 135°19'510.0
2018-Jul-18 22:00N 34°41' E 135°13'1 1.3
2018-Jul-18 21:20N 34°41' E 135°12'0 0.0
2018-Jul-18 20:50N 34°41' E 135°12'0 0.0
2018-Jul-18 20:30N 34°41' E 135°12'0 0.0
2018-Jul-18 20:00N 34°41' E 135°12'0 0.0
2018-Jul-18 19:30N 34°41' E 135°12'0 0.0
2018-Jul-18 18:58N 34°41' E 135°12'0 0.0
2018-Jul-18 18:30N 34°41' E 135°12'0 0.0
2018-Jul-18 18:00N 34°41' E 135°12'0 0.0
2018-Jul-18 17:29N 34°41' E 135°12'0 0.0
2018-Jul-18 17:00N 34°41' E 135°12'0 0.0
2018-Jul-18 16:30N 34°41' E 135°12'0 0.0
2018-Jul-18 16:00N 34°41' E 135°12'0 0.0
2018-Jul-18 15:31N 34°41' E 135°12'0 0.0
2018-Jul-18 15:00N 34°41' E 135°12'0 0.0
2018-Jul-18 14:30N 34°41' E 135°12'0 0.0
2018-Jul-18 13:30N 34°41' E 135°12'0 0.0
2018-Jul-18 13:00N 34°41' E 135°12'0 0.0
2018-Jul-18 12:31N 34°41' E 135°12'0 0.0
2018-Jul-18 11:59N 34°41' E 135°12'0 0.0
2018-Jul-18 11:30N 34°41' E 135°12'0 0.0
2018-Jul-18 10:30N 34°41' E 135°12'0 0.0
2018-Jul-18 09:56N 34°41' E 135°12'0 0.0
2018-Jul-18 09:30N 34°41' E 135°12'0 0.0
2018-Jul-18 09:00N 34°41' E 135°12'0 0.0
2018-Jul-18 08:30N 34°41' E 135°12'0 0.0
2018-Jul-18 07:59N 34°41' E 135°12'0 0.0
2018-Jul-18 07:30N 34°41' E 135°12'0 0.0
2018-Jul-18 07:00N 34°41' E 135°12'0 0.0
2018-Jul-18 06:31N 34°41' E 135°12'0 0.0
2018-Jul-18 06:00N 34°41' E 135°12'0 0.0
2018-Jul-18 05:30N 34°41' E 135°12'1 2.0
2018-Jul-18 05:00N 34°41' E 135°13'4 7.9
2018-Jul-18 04:29N 34°39' E 135°18'0 0.0
2018-Jul-18 03:22N 34°39' E 135°18'0 0.0
2018-Jul-18 02:58N 34°39' E 135°18'0 0.1
2018-Jul-18 02:28N 34°39' E 135°18'1 2.8
2018-Jul-18 01:59N 34°40' E 135°19'5 8.5
2018-Jul-18 01:27N 34°42' E 135°24'1 1.1
2018-Jul-18 00:59N 34°42' E 135°23'0 0.0
2018-Jul-18 00:29N 34°42' E 135°23'0 0.0
2018-Jul-18 00:00N 34°42' E 135°23'0 0.0
2018-Jul-17 23:30N 34°42' E 135°23'0 0.0
2018-Jul-17 22:57N 34°42' E 135°23'0 0.0
2018-Jul-17 22:30N 34°42' E 135°23'0 0.0
2018-Jul-17 22:00N 34°42' E 135°23'0 0.0
2018-Jul-17 21:30N 34°42' E 135°23'0 0.0
2018-Jul-17 21:00N 34°42' E 135°23'0 0.0
2018-Jul-17 20:30N 34°42' E 135°23'0 0.0
2018-Jul-17 20:00N 34°42' E 135°23'0 0.0
2018-Jul-17 19:29N 34°42' E 135°23'0 0.0
2018-Jul-17 19:00N 34°42' E 135°23'0 0.0
2018-Jul-17 18:30N 34°42' E 135°23'0 0.0
2018-Jul-17 18:00N 34°42' E 135°23'0 0.0
2018-Jul-17 17:30N 34°42' E 135°23'0 0.0
2018-Jul-17 17:00N 34°42' E 135°23'0 0.0
2018-Jul-17 16:30N 34°42' E 135°23'0 0.0
2018-Jul-17 15:55N 34°42' E 135°23'0 0.0
2018-Jul-17 15:30N 34°42' E 135°23'0 0.0
2018-Jul-17 15:00N 34°42' E 135°23'0 0.0
2018-Jul-17 14:30N 34°42' E 135°23'0 0.0
2018-Jul-17 14:00N 34°42' E 135°23'0 0.0
2018-Jul-17 13:30N 34°42' E 135°23'0 0.0
2018-Jul-17 13:00N 34°42' E 135°23'0 0.0
2018-Jul-17 12:30N 34°42' E 135°23'0 0.0
2018-Jul-17 12:01N 34°42' E 135°23'0 0.0
2018-Jul-17 11:30N 34°42' E 135°23'0 0.0
2018-Jul-17 11:00N 34°42' E 135°23'0 0.0
2018-Jul-17 10:30N 34°42' E 135°23'0 0.0
2018-Jul-17 10:00N 34°42' E 135°23'0 0.0
2018-Jul-17 09:30N 34°42' E 135°23'0 0.9
2018-Jul-17 09:00N 34°42' E 135°24'1 1.6
2018-Jul-17 08:30N 34°41' E 135°23'5 9.7
2018-Jul-17 08:00N 34°41' E 135°18'4 8.6
2018-Jul-17 07:30N 34°41' E 135°12'1 1.2
2018-Jul-17 06:58N 34°41' E 135°13'4 8.6
2018-Jul-17 06:30N 34°39' E 135°17'1 1.3
2018-Jul-17 05:56N 34°39' E 135°18'0 0.1
2018-Jul-17 05:26N 34°39' E 135°18'0 0.0
2018-Jul-17 04:20N 34°39' E 135°18'0 0.0
2018-Jul-17 04:00N 34°39' E 135°18'2 4.8
2018-Jul-17 03:30N 34°42' E 135°18'1 2.0
2018-Jul-17 02:59N 34°42' E 135°17'0 0.0
2018-Jul-17 02:29N 34°42' E 135°17'0 0.0
2018-Jul-17 01:59N 34°42' E 135°17'0 0.0
2018-Jul-17 01:29N 34°42' E 135°17'0 0.0
2018-Jul-17 00:59N 34°42' E 135°17'0 0.0
2018-Jul-17 00:29N 34°42' E 135°17'0 0.0
2018-Jul-16 23:30N 34°42' E 135°17'1 2.9
2018-Jul-16 23:00N 34°42' E 135°15'2 4.5
2018-Jul-16 22:29N 34°41' E 135°12'0 0.0
2018-Jul-16 21:59N 34°41' E 135°12'0 0.0
2018-Jul-16 21:30N 34°41' E 135°12'0 0.0
2018-Jul-16 21:00N 34°41' E 135°12'0 0.0
2018-Jul-16 20:30N 34°41' E 135°12'0 0.0
2018-Jul-16 20:00N 34°41' E 135°12'0 0.0
2018-Jul-16 19:30N 34°41' E 135°12'0 0.0
2018-Jul-16 19:00N 34°41' E 135°12'0 0.0
2018-Jul-16 18:30N 34°41' E 135°12'0 0.0
2018-Jul-16 18:00N 34°41' E 135°12'0 0.0
2018-Jul-16 17:30N 34°41' E 135°12'0 0.0
2018-Jul-16 17:00N 34°41' E 135°12'0 0.0
2018-Jul-16 16:30N 34°41' E 135°12'0 0.0
2018-Jul-16 16:00N 34°41' E 135°12'0 0.0
2018-Jul-16 15:30N 34°41' E 135°12'0 0.0
2018-Jul-16 15:00N 34°41' E 135°12'0 0.0
2018-Jul-16 14:30N 34°41' E 135°12'0 0.0
2018-Jul-16 14:00N 34°41' E 135°12'0 0.0
2018-Jul-16 13:30N 34°41' E 135°12'0 0.0
2018-Jul-16 13:00N 34°41' E 135°12'0 0.0
2018-Jul-16 12:30N 34°41' E 135°12'0 0.0
2018-Jul-16 12:00N 34°41' E 135°12'0 0.0
2018-Jul-16 11:30N 34°41' E 135°12'0 0.0
2018-Jul-16 11:00N 34°41' E 135°12'0 0.0
2018-Jul-16 10:31N 34°41' E 135°12'0 0.0
2018-Jul-16 10:00N 34°41' E 135°12'0 0.0
2018-Jul-16 09:30N 34°41' E 135°12'0 0.0
2018-Jul-16 09:00N 34°41' E 135°12'0 0.0
2018-Jul-16 08:30N 34°41' E 135°12'0 0.0
2018-Jul-16 08:00N 34°41' E 135°12'0 0.0
2018-Jul-16 07:30N 34°41' E 135°12'0 0.0
2018-Jul-16 06:59N 34°41' E 135°12'0 0.0
2018-Jul-16 06:30N 34°41' E 135°12'0 0.0
2018-Jul-16 06:00N 34°41' E 135°12'0 0.0
2018-Jul-16 05:30N 34°41' E 135°12'0 0.0
2018-Jul-16 04:58N 34°41' E 135°12'0 0.0
2018-Jul-16 04:29N 34°41' E 135°12'0 0.0
2018-Jul-16 03:54N 34°41' E 135°12'0 0.0
2018-Jul-16 03:30N 34°41' E 135°12'0 0.0
2018-Jul-16 03:00N 34°41' E 135°12'0 0.0
2018-Jul-16 02:29N 34°41' E 135°12'0 0.0
2018-Jul-16 02:00N 34°41' E 135°12'0 0.0
2018-Jul-16 01:30N 34°41' E 135°12'0 0.0
2018-Jul-16 01:00N 34°41' E 135°12'0 0.0
2018-Jul-16 00:30N 34°41' E 135°12'0 0.0
2018-Jul-15 23:59N 34°41' E 135°12'0 0.0
2018-Jul-15 23:30N 34°41' E 135°12'0 0.0
2018-Jul-15 23:00N 34°41' E 135°12'0 0.0
2018-Jul-15 22:30N 34°41' E 135°12'0 0.0
2018-Jul-15 22:00N 34°41' E 135°12'0 0.0
2018-Jul-15 21:30N 34°41' E 135°12'0 0.0
2018-Jul-15 21:00N 34°41' E 135°12'0 0.0
2018-Jul-15 20:30N 34°41' E 135°12'0 0.0
2018-Jul-15 20:00N 34°41' E 135°12'0 0.0
2018-Jul-15 19:30N 34°41' E 135°12'0 0.0
2018-Jul-15 19:00N 34°41' E 135°12'0 0.0
2018-Jul-15 18:30N 34°41' E 135°12'0 0.0
2018-Jul-15 18:00N 34°41' E 135°12'0 0.0
2018-Jul-15 17:30N 34°41' E 135°12'0 0.0
2018-Jul-15 17:00N 34°41' E 135°12'0 0.0
2018-Jul-15 16:27N 34°41' E 135°12'0 0.0
2018-Jul-15 16:00N 34°41' E 135°12'0 0.0
2018-Jul-15 15:30N 34°41' E 135°12'0 0.0
2018-Jul-15 15:00N 34°41' E 135°12'0 0.0
2018-Jul-15 14:30N 34°41' E 135°12'0 0.0
2018-Jul-15 14:00N 34°41' E 135°12'0 0.0
2018-Jul-15 13:30N 34°41' E 135°12'0 0.0
2018-Jul-15 13:00N 34°41' E 135°12'0 0.0
2018-Jul-15 12:30N 34°41' E 135°12'0 0.8
2018-Jul-15 12:00N 34°41' E 135°13'4 8.1
2018-Jul-15 11:30N 34°38' E 135°16'510.7
2018-Jul-15 11:00N 34°33' E 135°14'510.3
2018-Jul-15 10:30N 34°29' E 135°10'611.4
2018-Jul-15 10:00N 34°24' E 135°07'611.4
2018-Jul-15 09:30N 34°18' E 135°04'611.9
2018-Jul-15 09:00N 34°13' E 135°03'611.2
2018-Jul-15 08:30N 34°07' E 135°02'611.3
2018-Jul-15 08:01N 34°01' E 135°02'224 9.1
2018-Jul-14 07:31N 34°60' E 139°24'0 9.1
2018-Jul-14 07:30N 34°60' E 139°24'4 8.0
2018-Jul-14 06:58N 35°02' E 139°29'4 9.3
2018-Jul-14 06:30N 35°04' E 139°33'511.0
2018-Jul-14 06:00N 35°07' E 139°39'611.1
2018-Jul-14 05:30N 35°11' E 139°44'5 9.7
2018-Jul-14 05:00N 35°15' E 139°46'5 9.7
2018-Jul-14 04:31N 35°19' E 139°43'5 9.8
2018-Jul-14 04:00N 35°24' E 139°42'5 9.4
2018-Jul-14 03:31N 35°28' E 139°40'1 1.6
2018-Jul-14 03:01N 35°29' E 139°40'0 0.0
2018-Jul-14 02:29N 35°29' E 139°40'0 0.0
2018-Jul-14 01:56N 35°29' E 139°40'0 0.0
2018-Jul-14 01:29N 35°29' E 139°40'0 0.0
2018-Jul-14 00:59N 35°29' E 139°40'0 0.0
2018-Jul-14 00:29N 35°29' E 139°40'0 0.0
2018-Jul-13 23:59N 35°29' E 139°40'0 0.0
2018-Jul-13 23:29N 35°29' E 139°40'2 3.3
2018-Jul-13 23:00N 35°27' E 139°40'2 4.8
2018-Jul-13 22:30N 35°26' E 139°43'0 0.1
2018-Jul-13 22:00N 35°26' E 139°43'0 0.0
2018-Jul-13 21:30N 35°27' E 139°43'0 0.0
2018-Jul-13 21:00N 35°27' E 139°43'0 0.0
2018-Jul-13 20:30N 35°27' E 139°43'0 0.0
2018-Jul-13 20:00N 35°27' E 139°43'0 0.1
2018-Jul-13 19:30N 35°27' E 139°43'0 0.0
2018-Jul-13 19:00N 35°27' E 139°43'0 0.0
2018-Jul-13 18:30N 35°27' E 139°43'0 0.0
2018-Jul-13 17:57N 35°27' E 139°43'0 0.0
2018-Jul-13 17:30N 35°27' E 139°43'0 0.0
2018-Jul-13 17:00N 35°27' E 139°43'0 0.0
2018-Jul-13 16:30N 35°27' E 139°43'0 0.0
2018-Jul-13 16:00N 35°27' E 139°43'0 0.0
2018-Jul-13 15:30N 35°27' E 139°43'4 8.4
2018-Jul-13 15:00N 35°22' E 139°43'611.2
2018-Jul-13 14:30N 35°17' E 139°45'1010.4
2018-Jul-13 13:30N 35°07' E 139°45'510.8
2018-Jul-13 13:00N 35°02' E 139°41'510.7
2018-Jul-13 12:30N 34°58' E 139°37'611.7
2018-Jul-13 11:57N 34°55' E 139°30'228 7.2
2018-Jul-12 04:01N 33°56' E 135°02'011.9
2018-Jul-12 04:00N 33°56' E 135°02'611.4
2018-Jul-12 03:30N 34°02' E 135°03'611.5
2018-Jul-12 03:00N 34°08' E 135°03'611.3
2018-Jul-12 02:30N 34°14' E 135°03'612.6
2018-Jul-12 02:00N 34°20' E 135°04'612.0
2018-Jul-12 01:30N 34°25' E 135°08'611.3
2018-Jul-12 01:00N 34°30' E 135°12'511.2
2018-Jul-12 00:31N 34°34' E 135°15'611.1
2018-Jul-12 00:00N 34°39' E 135°18'0 0.7
2018-Jul-11 23:27N 34°40' E 135°18'0 0.0
2018-Jul-11 22:57N 34°40' E 135°18'0 0.0
2018-Jul-11 22:30N 34°40' E 135°18'0 0.6
2018-Jul-11 22:00N 34°39' E 135°17'0 0.7
2018-Jul-11 21:30N 34°40' E 135°17'0 0.8
2018-Jul-11 21:00N 34°40' E 135°17'0 0.9
2018-Jul-11 20:30N 34°40' E 135°18'4 8.8
2018-Jul-11 20:00N 34°41' E 135°13'0 0.6
2018-Jul-11 19:25N 34°41' E 135°12'0 0.0
2018-Jul-11 19:00N 34°41' E 135°12'0 0.0
2018-Jul-11 18:29N 34°41' E 135°12'0 0.0
2018-Jul-11 18:00N 34°41' E 135°12'0 0.0
2018-Jul-11 17:30N 34°41' E 135°12'0 0.0
2018-Jul-11 17:00N 34°41' E 135°12'0 0.0
2018-Jul-11 16:30N 34°41' E 135°12'0 0.0
2018-Jul-11 16:00N 34°41' E 135°12'0 0.0
2018-Jul-11 15:30N 34°41' E 135°12'0 0.0
2018-Jul-11 15:00N 34°41' E 135°12'0 0.0
2018-Jul-11 14:30N 34°41' E 135°12'0 0.0
2018-Jul-11 14:00N 34°41' E 135°12'0 0.0
2018-Jul-11 13:30N 34°41' E 135°12'0 0.0
2018-Jul-11 13:00N 34°41' E 135°12'0 0.0
2018-Jul-11 12:30N 34°41' E 135°12'0 0.0
2018-Jul-11 12:00N 34°41' E 135°12'0 0.0
2018-Jul-11 11:30N 34°41' E 135°12'0 0.0
2018-Jul-11 10:58N 34°41' E 135°12'0 0.0
2018-Jul-11 10:30N 34°41' E 135°12'0 0.0
2018-Jul-11 10:00N 34°41' E 135°12'0 0.0
2018-Jul-11 09:30N 34°41' E 135°12'0 0.0
2018-Jul-11 09:00N 34°41' E 135°12'0 0.0
2018-Jul-11 08:29N 34°41' E 135°12'0 0.0
2018-Jul-11 07:55N 34°41' E 135°12'0 0.0
2018-Jul-11 07:30N 34°41' E 135°12'0 0.0
2018-Jul-11 06:57N 34°41' E 135°12'0 0.0
2018-Jul-11 06:30N 34°41' E 135°12'0 0.0
2018-Jul-11 06:00N 34°41' E 135°12'0 0.0
2018-Jul-11 05:30N 34°41' E 135°12'0 0.0
2018-Jul-11 05:00N 34°41' E 135°12'0 0.0
2018-Jul-11 04:30N 34°41' E 135°12'0 0.0
2018-Jul-11 04:00N 34°41' E 135°12'0 0.0
2018-Jul-11 03:30N 34°41' E 135°12'0 0.0
2018-Jul-11 02:58N 34°41' E 135°12'0 0.0
2018-Jul-11 02:26N 34°41' E 135°12'0 0.0
2018-Jul-11 02:00N 34°41' E 135°12'0 0.0
2018-Jul-11 01:30N 34°41' E 135°12'0 0.0
2018-Jul-11 01:00N 34°41' E 135°12'0 0.0
2018-Jul-11 00:30N 34°41' E 135°12'0 0.0
2018-Jul-11 00:00N 34°41' E 135°12'0 0.0
2018-Jul-10 23:30N 34°41' E 135°12'0 0.0
2018-Jul-10 23:00N 34°41' E 135°12'0 0.0
2018-Jul-10 22:30N 34°41' E 135°12'0 0.0
2018-Jul-10 22:00N 34°41' E 135°12'0 0.0
2018-Jul-10 21:30N 34°41' E 135°12'0 0.0
2018-Jul-10 20:56N 34°41' E 135°12'0 0.0
2018-Jul-10 20:30N 34°41' E 135°12'0 0.0
2018-Jul-10 20:00N 34°41' E 135°12'0 0.0
2018-Jul-10 19:30N 34°41' E 135°12'0 0.0
2018-Jul-10 19:00N 34°41' E 135°12'0 0.0
2018-Jul-10 18:30N 34°41' E 135°12'0 0.0
2018-Jul-10 18:00N 34°41' E 135°12'0 0.0
2018-Jul-10 17:30N 34°41' E 135°12'0 0.0
2018-Jul-10 17:00N 34°41' E 135°12'0 0.0
2018-Jul-10 16:30N 34°41' E 135°12'0 0.0
2018-Jul-10 16:00N 34°41' E 135°12'0 0.0
2018-Jul-10 15:30N 34°41' E 135°12'0 0.0
2018-Jul-10 15:00N 34°41' E 135°12'0 0.0
2018-Jul-10 14:30N 34°41' E 135°12'0 0.0
2018-Jul-10 13:59N 34°41' E 135°12'0 0.0
2018-Jul-10 13:30N 34°41' E 135°12'0 0.0
2018-Jul-10 13:00N 34°41' E 135°12'0 0.0
2018-Jul-10 12:30N 34°41' E 135°12'0 0.0
2018-Jul-10 12:00N 34°41' E 135°12'0 0.0
2018-Jul-10 11:30N 34°41' E 135°12'0 0.0
2018-Jul-10 11:00N 34°41' E 135°12'0 0.0
2018-Jul-10 10:30N 34°41' E 135°12'0 0.0
2018-Jul-10 10:00N 34°41' E 135°12'0 0.0
2018-Jul-10 09:30N 34°41' E 135°12'0 0.0
2018-Jul-10 09:00N 34°41' E 135°12'2 4.6
2018-Jul-10 08:30N 34°40' E 135°15'510.0
2018-Jul-10 08:00N 34°35' E 135°15'611.9
2018-Jul-10 07:30N 34°30' E 135°11'612.4
2018-Jul-10 07:00N 34°25' E 135°08'  
Track history (hours):
 
Tides and Currents Weather Stations Pressure Air Temp Water Temp Dewpoint Dewpoint Depression Visibility Wind Speed Wind Dir Waves Ship Positions

Kaisei Maru

Last reported at 2018-Jul-20 06:30 UTC. Time now 2018-Jul-20 06:54 UTC.
Position N 34°41' E 135°12'.

Length 52 m; draft 3 m.

Type: Tanker. MMSI: 431001837.

Date/timePositionNaut miles runAvg speedWind from/ knotsBaromVisibWave heightAir tempDewpointWater temp
2018-Jul-20 06:30N 34°41' E 135°12'0 0.2
2018-Jul-20 06:00N 34°41' E 135°12'4 8.0
2018-Jul-20 05:30N 34°39' E 135°16'510.6
2018-Jul-20 05:00N 34°34' E 135°18'510.7
2018-Jul-20 04:30N 34°28' E 135°20'0 0.2
2018-Jul-20 03:27N 34°28' E 135°20'1 3.1
2018-Jul-20 03:00N 34°27' E 135°19'1 0.5
2018-Jul-20 00:58N 34°26' E 135°19'1 2.0
2018-Jul-20 00:24N 34°27' E 135°19'5 9.0
2018-Jul-19 23:52N 34°32' E 135°18'410.8
2018-Jul-19 23:30N 34°35' E 135°17'510.8
2018-Jul-19 23:00N 34°40' E 135°15'2 3.7
2018-Jul-19 22:28N 34°41' E 135°12'0 0.0
2018-Jul-19 21:58N 34°41' E 135°12'0 0.0
2018-Jul-19 21:22N 34°41' E 135°12'0 0.0
2018-Jul-19 20:58N 34°41' E 135°12'0 0.0
2018-Jul-19 20:30N 34°41' E 135°12'0 0.0
2018-Jul-19 20:00N 34°41' E 135°12'0 0.0
2018-Jul-19 19:30N 34°41' E 135°12'0 0.0
2018-Jul-19 19:00N 34°41' E 135°12'0 0.0
2018-Jul-19 18:30N 34°41' E 135°12'0 0.0
2018-Jul-19 18:00N 34°41' E 135°12'0 0.0
2018-Jul-19 17:30N 34°41' E 135°12'0 0.0
2018-Jul-19 17:00N 34°41' E 135°12'0 0.0
2018-Jul-19 16:30N 34°41' E 135°12'0 0.0
2018-Jul-19 16:00N 34°41' E 135°12'0 0.0
2018-Jul-19 15:30N 34°41' E 135°12'0 0.0
2018-Jul-19 15:00N 34°41' E 135°12'0 0.0
2018-Jul-19 13:57N 34°41' E 135°12'0 0.0
2018-Jul-19 13:30N 34°41' E 135°12'0 0.0
2018-Jul-19 13:00N 34°41' E 135°12'0 0.0
2018-Jul-19 12:30N 34°41' E 135°12'0 0.0
2018-Jul-19 12:00N 34°41' E 135°12'0 0.0
2018-Jul-19 11:30N 34°41' E 135°12'0 0.0
2018-Jul-19 11:00N 34°41' E 135°12'0 0.0
2018-Jul-19 10:30N 34°41' E 135°12'0 0.0
2018-Jul-19 10:00N 34°41' E 135°12'0 0.0
2018-Jul-19 09:30N 34°41' E 135°12'0 0.0
2018-Jul-19 09:00N 34°41' E 135°12'0 0.0
2018-Jul-19 08:30N 34°41' E 135°12'0 0.0
2018-Jul-19 08:00N 34°41' E 135°12'2 3.9
2018-Jul-19 07:30N 34°41' E 135°15'4 8.7
2018-Jul-19 07:00N 34°41' E 135°20'4 6.4
2018-Jul-19 06:27N 34°42' E 135°24'0 0.1
2018-Jul-19 01:41N 34°42' E 135°23'0 0.3
2018-Jul-19 01:30N 34°42' E 135°24'0 0.1
2018-Jul-19 01:00N 34°42' E 135°24'0 0.0
2018-Jul-19 00:30N 34°42' E 135°24'0 0.0
2018-Jul-19 00:00N 34°42' E 135°24'0 0.1
2018-Jul-18 23:30N 34°42' E 135°24'0 0.6
2018-Jul-18 23:00N 34°42' E 135°24'4 7.5
2018-Jul-18 22:30N 34°41' E 135°19'510.0
2018-Jul-18 22:00N 34°41' E 135°13'1 1.3
2018-Jul-18 21:20N 34°41' E 135°12'0 0.0
2018-Jul-18 20:50N 34°41' E 135°12'0 0.0
2018-Jul-18 20:30N 34°41' E 135°12'0 0.0
2018-Jul-18 20:00N 34°41' E 135°12'0 0.0
2018-Jul-18 19:30N 34°41' E 135°12'0 0.0
2018-Jul-18 18:58N 34°41' E 135°12'0 0.0
2018-Jul-18 18:30N 34°41' E 135°12'0 0.0
2018-Jul-18 18:00N 34°41' E 135°12'0 0.0
2018-Jul-18 17:29N 34°41' E 135°12'0 0.0
2018-Jul-18 17:00N 34°41' E 135°12'0 0.0
2018-Jul-18 16:30N 34°41' E 135°12'0 0.0
2018-Jul-18 16:00N 34°41' E 135°12'0 0.0
2018-Jul-18 15:31N 34°41' E 135°12'0 0.0
2018-Jul-18 15:00N 34°41' E 135°12'0 0.0
2018-Jul-18 14:30N 34°41' E 135°12'0 0.0
2018-Jul-18 13:30N 34°41' E 135°12'0 0.0
2018-Jul-18 13:00N 34°41' E 135°12'0 0.0
2018-Jul-18 12:31N 34°41' E 135°12'0 0.0
2018-Jul-18 11:59N 34°41' E 135°12'0 0.0
2018-Jul-18 11:30N 34°41' E 135°12'0 0.0
2018-Jul-18 10:30N 34°41' E 135°12'0 0.0
2018-Jul-18 09:56N 34°41' E 135°12'0 0.0
2018-Jul-18 09:30N 34°41' E 135°12'0 0.0
2018-Jul-18 09:00N 34°41' E 135°12'0 0.0
2018-Jul-18 08:30N 34°41' E 135°12'0 0.0
2018-Jul-18 07:59N 34°41' E 135°12'0 0.0
2018-Jul-18 07:30N 34°41' E 135°12'0 0.0
2018-Jul-18 07:00N 34°41' E 135°12'0 0.0
2018-Jul-18 06:31N 34°41' E 135°12'0 0.0
2018-Jul-18 06:00N 34°41' E 135°12'0 0.0
2018-Jul-18 05:30N 34°41' E 135°12'1 2.0
2018-Jul-18 05:00N 34°41' E 135°13'4 7.9
2018-Jul-18 04:29N 34°39' E 135°18'0 0.0
2018-Jul-18 03:22N 34°39' E 135°18'0 0.0
2018-Jul-18 02:58N 34°39' E 135°18'0 0.1
2018-Jul-18 02:28N 34°39' E 135°18'1 2.8
2018-Jul-18 01:59N 34°40' E 135°19'5 8.5
2018-Jul-18 01:27N 34°42' E 135°24'1 1.1
2018-Jul-18 00:59N 34°42' E 135°23'0 0.0
2018-Jul-18 00:29N 34°42' E 135°23'0 0.0
2018-Jul-18 00:00N 34°42' E 135°23'0 0.0
2018-Jul-17 23:30N 34°42' E 135°23'0 0.0
2018-Jul-17 22:57N 34°42' E 135°23'0 0.0
2018-Jul-17 22:30N 34°42' E 135°23'0 0.0
2018-Jul-17 22:00N 34°42' E 135°23'0 0.0
2018-Jul-17 21:30N 34°42' E 135°23'0 0.0
2018-Jul-17 21:00N 34°42' E 135°23'0 0.0
2018-Jul-17 20:30N 34°42' E 135°23'0 0.0
2018-Jul-17 20:00N 34°42' E 135°23'0 0.0
2018-Jul-17 19:29N 34°42' E 135°23'0 0.0
2018-Jul-17 19:00N 34°42' E 135°23'0 0.0
2018-Jul-17 18:30N 34°42' E 135°23'0 0.0
2018-Jul-17 18:00N 34°42' E 135°23'0 0.0
2018-Jul-17 17:30N 34°42' E 135°23'0 0.0
2018-Jul-17 17:00N 34°42' E 135°23'0 0.0
2018-Jul-17 16:30N 34°42' E 135°23'0 0.0
2018-Jul-17 15:55N 34°42' E 135°23'0 0.0
2018-Jul-17 15:30N 34°42' E 135°23'0 0.0
2018-Jul-17 15:00N 34°42' E 135°23'0 0.0
2018-Jul-17 14:30N 34°42' E 135°23'0 0.0
2018-Jul-17 14:00N 34°42' E 135°23'0 0.0
2018-Jul-17 13:30N 34°42' E 135°23'0 0.0
2018-Jul-17 13:00N 34°42' E 135°23'0 0.0
2018-Jul-17 12:30N 34°42' E 135°23'0 0.0
2018-Jul-17 12:01N 34°42' E 135°23'0 0.0
2018-Jul-17 11:30N 34°42' E 135°23'0 0.0
2018-Jul-17 11:00N 34°42' E 135°23'0 0.0
2018-Jul-17 10:30N 34°42' E 135°23'0 0.0
2018-Jul-17 10:00N 34°42' E 135°23'0 0.0
2018-Jul-17 09:30N 34°42' E 135°23'0 0.9
2018-Jul-17 09:00N 34°42' E 135°24'1 1.6
2018-Jul-17 08:30N 34°41' E 135°23'5 9.7
2018-Jul-17 08:00N 34°41' E 135°18'4 8.6
2018-Jul-17 07:30N 34°41' E 135°12'1 1.2
2018-Jul-17 06:58N 34°41' E 135°13'4 8.6
2018-Jul-17 06:30N 34°39' E 135°17'1 1.3
2018-Jul-17 05:56N 34°39' E 135°18'0 0.1
2018-Jul-17 05:26N 34°39' E 135°18'0 0.0
2018-Jul-17 04:20N 34°39' E 135°18'0 0.0
2018-Jul-17 04:00N 34°39' E 135°18'2 4.8
2018-Jul-17 03:30N 34°42' E 135°18'1 2.0
2018-Jul-17 02:59N 34°42' E 135°17'0 0.0
2018-Jul-17 02:29N 34°42' E 135°17'0 0.0
2018-Jul-17 01:59N 34°42' E 135°17'0 0.0
2018-Jul-17 01:29N 34°42' E 135°17'0 0.0
2018-Jul-17 00:59N 34°42' E 135°17'0 0.0
2018-Jul-17 00:29N 34°42' E 135°17'0 0.0
2018-Jul-16 23:30N 34°42' E 135°17'1 2.9
2018-Jul-16 23:00N 34°42' E 135°15'2 4.5
2018-Jul-16 22:29N 34°41' E 135°12'0 0.0
2018-Jul-16 21:59N 34°41' E 135°12'0 0.0
2018-Jul-16 21:30N 34°41' E 135°12'0 0.0
2018-Jul-16 21:00N 34°41' E 135°12'0 0.0
2018-Jul-16 20:30N 34°41' E 135°12'0 0.0
2018-Jul-16 20:00N 34°41' E 135°12'0 0.0
2018-Jul-16 19:30N 34°41' E 135°12'0 0.0
2018-Jul-16 19:00N 34°41' E 135°12'0 0.0
2018-Jul-16 18:30N 34°41' E 135°12'0 0.0
2018-Jul-16 18:00N 34°41' E 135°12'0 0.0
2018-Jul-16 17:30N 34°41' E 135°12'0 0.0
2018-Jul-16 17:00N 34°41' E 135°12'0 0.0
2018-Jul-16 16:30N 34°41' E 135°12'0 0.0
2018-Jul-16 16:00N 34°41' E 135°12'0 0.0
2018-Jul-16 15:30N 34°41' E 135°12'0 0.0
2018-Jul-16 15:00N 34°41' E 135°12'0 0.0
2018-Jul-16 14:30N 34°41' E 135°12'0 0.0
2018-Jul-16 14:00N 34°41' E 135°12'0 0.0
2018-Jul-16 13:30N 34°41' E 135°12'0 0.0
2018-Jul-16 13:00N 34°41' E 135°12'0 0.0
2018-Jul-16 12:30N 34°41' E 135°12'0 0.0
2018-Jul-16 12:00N 34°41' E 135°12'0 0.0
2018-Jul-16 11:30N 34°41' E 135°12'0 0.0
2018-Jul-16 11:00N 34°41' E 135°12'0 0.0
2018-Jul-16 10:31N 34°41' E 135°12'0 0.0
2018-Jul-16 10:00N 34°41' E 135°12'0 0.0
2018-Jul-16 09:30N 34°41' E 135°12'0 0.0
2018-Jul-16 09:00N 34°41' E 135°12'0 0.0
2018-Jul-16 08:30N 34°41' E 135°12'0 0.0
2018-Jul-16 08:00N 34°41' E 135°12'0 0.0
2018-Jul-16 07:30N 34°41' E 135°12'0 0.0
2018-Jul-16 06:59N 34°41' E 135°12'0 0.0
2018-Jul-16 06:30N 34°41' E 135°12'0 0.0
2018-Jul-16 06:00N 34°41' E 135°12'0 0.0
2018-Jul-16 05:30N 34°41' E 135°12'0 0.0
2018-Jul-16 04:58N 34°41' E 135°12'0 0.0
2018-Jul-16 04:29N 34°41' E 135°12'0 0.0
2018-Jul-16 03:54N 34°41' E 135°12'0 0.0
2018-Jul-16 03:30N 34°41' E 135°12'0 0.0
2018-Jul-16 03:00N 34°41' E 135°12'0 0.0
2018-Jul-16 02:29N 34°41' E 135°12'0 0.0
2018-Jul-16 02:00N 34°41' E 135°12'0 0.0
2018-Jul-16 01:30N 34°41' E 135°12'0 0.0
2018-Jul-16 01:00N 34°41' E 135°12'0 0.0
2018-Jul-16 00:30N 34°41' E 135°12'0 0.0
2018-Jul-15 23:59N 34°41' E 135°12'0 0.0
2018-Jul-15 23:30N 34°41' E 135°12'0 0.0
2018-Jul-15 23:00N 34°41' E 135°12'0 0.0
2018-Jul-15 22:30N 34°41' E 135°12'0 0.0
2018-Jul-15 22:00N 34°41' E 135°12'0 0.0
2018-Jul-15 21:30N 34°41' E 135°12'0 0.0
2018-Jul-15 21:00N 34°41' E 135°12'0 0.0
2018-Jul-15 20:30N 34°41' E 135°12'0 0.0
2018-Jul-15 20:00N 34°41' E 135°12'0 0.0
2018-Jul-15 19:30N 34°41' E 135°12'0 0.0
2018-Jul-15 19:00N 34°41' E 135°12'0 0.0
2018-Jul-15 18:30N 34°41' E 135°12'0 0.0
2018-Jul-15 18:00N 34°41' E 135°12'0 0.0
2018-Jul-15 17:30N 34°41' E 135°12'0 0.0
2018-Jul-15 17:00N 34°41' E 135°12'0 0.0
2018-Jul-15 16:27N 34°41' E 135°12'0 0.0
2018-Jul-15 16:00N 34°41' E 135°12'0 0.0
2018-Jul-15 15:30N 34°41' E 135°12'0 0.0
2018-Jul-15 15:00N 34°41' E 135°12'0 0.0
2018-Jul-15 14:30N 34°41' E 135°12'0 0.0
2018-Jul-15 14:00N 34°41' E 135°12'0 0.0
2018-Jul-15 13:30N 34°41' E 135°12'0 0.0
2018-Jul-15 13:00N 34°41' E 135°12'0 0.0
2018-Jul-15 12:30N 34°41' E 135°12'0 0.8
2018-Jul-15 12:00N 34°41' E 135°13'4 8.1
2018-Jul-15 11:30N 34°38' E 135°16'510.7
2018-Jul-15 11:00N 34°33' E 135°14'510.3
2018-Jul-15 10:30N 34°29' E 135°10'611.4
2018-Jul-15 10:00N 34°24' E 135°07'611.4
2018-Jul-15 09:30N 34°18' E 135°04'611.9
2018-Jul-15 09:00N 34°13' E 135°03'611.2
2018-Jul-15 08:30N 34°07' E 135°02'611.3
2018-Jul-15 08:01N 34°01' E 135°02'224 9.1
2018-Jul-14 07:31N 34°60' E 139°24'0 9.1
2018-Jul-14 07:30N 34°60' E 139°24'4 8.0
2018-Jul-14 06:58N 35°02' E 139°29'4 9.3
2018-Jul-14 06:30N 35°04' E 139°33'511.0
2018-Jul-14 06:00N 35°07' E 139°39'611.1
2018-Jul-14 05:30N 35°11' E 139°44'5 9.7
2018-Jul-14 05:00N 35°15' E 139°46'5 9.7
2018-Jul-14 04:31N 35°19' E 139°43'5 9.8
2018-Jul-14 04:00N 35°24' E 139°42'5 9.4
2018-Jul-14 03:31N 35°28' E 139°40'1 1.6
2018-Jul-14 03:01N 35°29' E 139°40'0 0.0
2018-Jul-14 02:29N 35°29' E 139°40'0 0.0
2018-Jul-14 01:56N 35°29' E 139°40'0 0.0
2018-Jul-14 01:29N 35°29' E 139°40'0 0.0
2018-Jul-14 00:59N 35°29' E 139°40'0 0.0
2018-Jul-14 00:29N 35°29' E 139°40'0 0.0
2018-Jul-13 23:59N 35°29' E 139°40'0 0.0
2018-Jul-13 23:29N 35°29' E 139°40'2 3.3
2018-Jul-13 23:00N 35°27' E 139°40'2 4.8
2018-Jul-13 22:30N 35°26' E 139°43'0 0.1
2018-Jul-13 22:00N 35°26' E 139°43'0 0.0
2018-Jul-13 21:30N 35°27' E 139°43'0 0.0
2018-Jul-13 21:00N 35°27' E 139°43'0 0.0
2018-Jul-13 20:30N 35°27' E 139°43'0 0.0
2018-Jul-13 20:00N 35°27' E 139°43'0 0.1
2018-Jul-13 19:30N 35°27' E 139°43'0 0.0
2018-Jul-13 19:00N 35°27' E 139°43'0 0.0
2018-Jul-13 18:30N 35°27' E 139°43'0 0.0
2018-Jul-13 17:57N 35°27' E 139°43'0 0.0
2018-Jul-13 17:30N 35°27' E 139°43'0 0.0
2018-Jul-13 17:00N 35°27' E 139°43'0 0.0
2018-Jul-13 16:30N 35°27' E 139°43'0 0.0
2018-Jul-13 16:00N 35°27' E 139°43'0 0.0
2018-Jul-13 15:30N 35°27' E 139°43'4 8.4
2018-Jul-13 15:00N 35°22' E 139°43'611.2
2018-Jul-13 14:30N 35°17' E 139°45'1010.4
2018-Jul-13 13:30N 35°07' E 139°45'510.8
2018-Jul-13 13:00N 35°02' E 139°41'510.7
2018-Jul-13 12:30N 34°58' E 139°37'611.7
2018-Jul-13 11:57N 34°55' E 139°30'228 7.2
2018-Jul-12 04:01N 33°56' E 135°02'011.9
2018-Jul-12 04:00N 33°56' E 135°02'611.4
2018-Jul-12 03:30N 34°02' E 135°03'611.5
2018-Jul-12 03:00N 34°08' E 135°03'611.3
2018-Jul-12 02:30N 34°14' E 135°03'612.6
2018-Jul-12 02:00N 34°20' E 135°04'612.0
2018-Jul-12 01:30N 34°25' E 135°08'611.3
2018-Jul-12 01:00N 34°30' E 135°12'511.2
2018-Jul-12 00:31N 34°34' E 135°15'611.1
2018-Jul-12 00:00N 34°39' E 135°18'0 0.7
2018-Jul-11 23:27N 34°40' E 135°18'0 0.0
2018-Jul-11 22:57N 34°40' E 135°18'0 0.0
2018-Jul-11 22:30N 34°40' E 135°18'0 0.6
2018-Jul-11 22:00N 34°39' E 135°17'0 0.7
2018-Jul-11 21:30N 34°40' E 135°17'0 0.8
2018-Jul-11 21:00N 34°40' E 135°17'0 0.9
2018-Jul-11 20:30N 34°40' E 135°18'4 8.8
2018-Jul-11 20:00N 34°41' E 135°13'0 0.6
2018-Jul-11 19:25N 34°41' E 135°12'0 0.0
2018-Jul-11 19:00N 34°41' E 135°12'0 0.0
2018-Jul-11 18:29N 34°41' E 135°12'0 0.0
2018-Jul-11 18:00N 34°41' E 135°12'0 0.0
2018-Jul-11 17:30N 34°41' E 135°12'0 0.0
2018-Jul-11 17:00N 34°41' E 135°12'0 0.0
2018-Jul-11 16:30N 34°41' E 135°12'0 0.0
2018-Jul-11 16:00N 34°41' E 135°12'0 0.0
2018-Jul-11 15:30N 34°41' E 135°12'0 0.0
2018-Jul-11 15:00N 34°41' E 135°12'0 0.0
2018-Jul-11 14:30N 34°41' E 135°12'0 0.0
2018-Jul-11 14:00N 34°41' E 135°12'0 0.0
2018-Jul-11 13:30N 34°41' E 135°12'0 0.0
2018-Jul-11 13:00N 34°41' E 135°12'0 0.0
2018-Jul-11 12:30N 34°41' E 135°12'0 0.0
2018-Jul-11 12:00N 34°41' E 135°12'0 0.0
2018-Jul-11 11:30N 34°41' E 135°12'0 0.0
2018-Jul-11 10:58N 34°41' E 135°12'0 0.0
2018-Jul-11 10:30N 34°41' E 135°12'0 0.0
2018-Jul-11 10:00N 34°41' E 135°12'0 0.0
2018-Jul-11 09:30N 34°41' E 135°12'0 0.0
2018-Jul-11 09:00N 34°41' E 135°12'0 0.0
2018-Jul-11 08:29N 34°41' E 135°12'0 0.0
2018-Jul-11 07:55N 34°41' E 135°12'0 0.0
2018-Jul-11 07:30N 34°41' E 135°12'0 0.0
2018-Jul-11 06:57N 34°41' E 135°12'0 0.0
2018-Jul-11 06:30N 34°41' E 135°12'0 0.0
2018-Jul-11 06:00N 34°41' E 135°12'0 0.0
2018-Jul-11 05:30N 34°41' E 135°12'0 0.0
2018-Jul-11 05:00N 34°41' E 135°12'0 0.0
2018-Jul-11 04:30N 34°41' E 135°12'0 0.0
2018-Jul-11 04:00N 34°41' E 135°12'0 0.0
2018-Jul-11 03:30N 34°41' E 135°12'0 0.0
2018-Jul-11 02:58N 34°41' E 135°12'0 0.0
2018-Jul-11 02:26N 34°41' E 135°12'0 0.0
2018-Jul-11 02:00N 34°41' E 135°12'0 0.0
2018-Jul-11 01:30N 34°41' E 135°12'0 0.0
2018-Jul-11 01:00N 34°41' E 135°12'0 0.0
2018-Jul-11 00:30N 34°41' E 135°12'0 0.0
2018-Jul-11 00:00N 34°41' E 135°12'0 0.0
2018-Jul-10 23:30N 34°41' E 135°12'0 0.0
2018-Jul-10 23:00N 34°41' E 135°12'0 0.0
2018-Jul-10 22:30N 34°41' E 135°12'0 0.0
2018-Jul-10 22:00N 34°41' E 135°12'0 0.0
2018-Jul-10 21:30N 34°41' E 135°12'0 0.0
2018-Jul-10 20:56N 34°41' E 135°12'0 0.0
2018-Jul-10 20:30N 34°41' E 135°12'0 0.0
2018-Jul-10 20:00N 34°41' E 135°12'0 0.0
2018-Jul-10 19:30N 34°41' E 135°12'0 0.0
2018-Jul-10 19:00N 34°41' E 135°12'0 0.0
2018-Jul-10 18:30N 34°41' E 135°12'0 0.0
2018-Jul-10 18:00N 34°41' E 135°12'0 0.0
2018-Jul-10 17:30N 34°41' E 135°12'0 0.0
2018-Jul-10 17:00N 34°41' E 135°12'0 0.0
2018-Jul-10 16:30N 34°41' E 135°12'0 0.0
2018-Jul-10 16:00N 34°41' E 135°12'0 0.0
2018-Jul-10 15:30N 34°41' E 135°12'0 0.0
2018-Jul-10 15:00N 34°41' E 135°12'0 0.0
2018-Jul-10 14:30N 34°41' E 135°12'0 0.0
2018-Jul-10 13:59N 34°41' E 135°12'0 0.0
2018-Jul-10 13:30N 34°41' E 135°12'0 0.0
2018-Jul-10 13:00N 34°41' E 135°12'0 0.0
2018-Jul-10 12:30N 34°41' E 135°12'0 0.0
2018-Jul-10 12:00N 34°41' E 135°12'0 0.0
2018-Jul-10 11:30N 34°41' E 135°12'0 0.0
2018-Jul-10 11:00N 34°41' E 135°12'0 0.0
2018-Jul-10 10:30N 34°41' E 135°12'0 0.0
2018-Jul-10 10:00N 34°41' E 135°12'0 0.0
2018-Jul-10 09:30N 34°41' E 135°12'0 0.0
2018-Jul-10 09:00N 34°41' E 135°12'2 4.6
2018-Jul-10 08:30N 34°40' E 135°15'510.0
2018-Jul-10 08:00N 34°35' E 135°15'611.9
2018-Jul-10 07:30N 34°30' E 135°11'612.4
2018-Jul-10 07:00N 34°25' E 135°08'  

Dump ship's entire track history